createdAt,value
2023-03-05T00:01:15.505Z,26.50
2023-03-05T00:03:42.620Z,23.63
2023-03-05T00:06:09.860Z,17.90
2023-03-05T00:08:37.221Z,23.80
2023-03-05T00:11:10.350Z,20.70
2023-03-05T00:13:38.550Z,19.90
2023-03-05T00:16:08.785Z,21.70
2023-03-05T00:18:35.818Z,19.50
2023-03-05T00:21:03.321Z,23.10
2023-03-05T00:23:30.446Z,16.57
2023-03-05T00:26:00.855Z,17.97
2023-03-05T00:28:27.809Z,21.50
2023-03-05T00:30:54.769Z,20.50
2023-03-05T00:33:22.131Z,17.93
2023-03-05T00:35:49.247Z,24.53
2023-03-05T00:38:16.674Z,19.73
2023-03-05T00:40:43.570Z,21.07
2023-03-05T00:43:11.142Z,20.50
2023-03-05T00:45:39.117Z,24.10
2023-03-05T00:48:06.316Z,25.00
2023-03-05T00:50:33.935Z,22.67
2023-03-05T00:53:03.893Z,20.17
2023-03-05T00:55:36.670Z,20.97
2023-03-05T00:58:06.690Z,20.20
2023-03-05T01:00:37.127Z,20.70
2023-03-05T01:03:04.772Z,17.67
2023-03-05T01:05:32.105Z,19.10
2023-03-05T01:07:59.197Z,20.70
2023-03-05T01:10:32.327Z,20.43
2023-03-05T01:12:59.184Z,16.70
2023-03-05T01:15:26.409Z,19.50
2023-03-05T01:17:53.556Z,19.70
2023-03-05T01:20:22.328Z,18.10
2023-03-05T01:22:49.346Z,25.93
2023-03-05T01:25:17.475Z,24.70
2023-03-05T01:27:44.927Z,19.17
2023-03-05T01:30:14.100Z,21.20
2023-03-05T01:32:41.316Z,20.27
2023-03-05T01:35:09.058Z,26.23
2023-03-05T01:37:35.920Z,27.87
2023-03-05T01:40:03.127Z,32.77
2023-03-05T01:42:30.431Z,40.53
2023-03-05T01:45:03.607Z,29.40
2023-03-05T01:47:30.821Z,26.57
2023-03-05T01:49:57.884Z,39.10
2023-03-05T01:52:27.679Z,25.00
2023-03-05T01:54:59.753Z,26.23
2023-03-05T01:57:40.268Z,21.13
2023-03-05T02:00:13.994Z,23.27
2023-03-05T02:02:43.565Z,26.97
2023-03-05T02:05:27.209Z,27.10
2023-03-05T02:08:03.969Z,26.90
2023-03-05T02:10:34.190Z,21.23
2023-03-05T02:13:04.589Z,23.30
2023-03-05T02:15:33.622Z,21.93
2023-03-05T02:18:01.671Z,22.00
2023-03-05T02:20:31.552Z,22.20
2023-03-05T02:22:58.573Z,20.43
2023-03-05T02:25:27.956Z,22.97
2023-03-05T02:28:00.477Z,23.20
2023-03-05T02:30:28.852Z,25.53
2023-03-05T02:32:55.856Z,21.60
2023-03-05T02:35:23.800Z,21.90
2023-03-05T02:37:51.427Z,22.27
2023-03-05T02:40:18.666Z,20.77
2023-03-05T02:42:46.723Z,18.87
2023-03-05T02:45:15.550Z,19.03
2023-03-05T02:47:42.519Z,20.33
2023-03-05T02:50:11.821Z,21.77
2023-03-05T02:52:39.515Z,17.53
2023-03-05T02:55:11.877Z,20.87
2023-03-05T02:57:40.399Z,20.67
2023-03-05T03:00:08.565Z,18.27
2023-03-05T03:02:35.681Z,18.23
2023-03-05T03:05:02.591Z,18.47
2023-03-05T03:07:30.637Z,17.80
2023-03-05T03:09:57.606Z,16.97
2023-03-05T03:12:24.456Z,17.00
2023-03-05T03:14:51.827Z,16.80
2023-03-05T03:17:19.176Z,17.87
2023-03-05T03:19:46.562Z,17.77
2023-03-05T03:22:15.574Z,16.23
2023-03-05T03:24:44.082Z,16.00
2023-03-05T03:27:11.065Z,17.97
2023-03-05T03:29:38.504Z,16.27
2023-03-05T03:32:05.795Z,18.93
2023-03-05T03:34:32.679Z,18.03
2023-03-05T03:36:59.521Z,16.47
2023-03-05T03:39:26.578Z,17.40
2023-03-05T03:41:53.761Z,20.10
2023-03-05T03:44:21.775Z,18.13
2023-03-05T03:46:50.603Z,21.90
2023-03-05T03:49:25.974Z,22.07
2023-03-05T03:51:58.308Z,17.30
2023-03-05T03:54:25.669Z,20.63
2023-03-05T03:56:52.915Z,20.73
2023-03-05T03:59:19.814Z,21.97
2023-03-05T04:01:47.985Z,18.23
2023-03-05T04:04:15.543Z,15.40
2023-03-05T04:06:42.515Z,16.90
2023-03-05T04:09:09.722Z,29.30
2023-03-05T04:11:37.851Z,32.00
2023-03-05T04:14:05.945Z,29.73
2023-03-05T04:16:33.219Z,30.97
2023-03-05T04:19:00.222Z,24.93
2023-03-05T04:21:27.337Z,21.40
2023-03-05T04:23:54.169Z,18.23
2023-03-05T04:26:21.111Z,22.40
2023-03-05T04:28:48.642Z,20.93
2023-03-05T04:31:15.847Z,22.07
2023-03-05T04:33:42.972Z,19.97
2023-03-05T04:36:10.051Z,20.20
2023-03-05T04:38:36.992Z,21.63
2023-03-05T04:41:04.222Z,20.67
2023-03-05T04:43:31.345Z,21.80
2023-03-05T04:45:58.762Z,23.07
2023-03-05T04:48:25.792Z,25.60
2023-03-05T04:50:52.782Z,18.60
2023-03-05T04:53:19.667Z,25.27
2023-03-05T04:55:46.600Z,19.40
2023-03-05T04:58:13.464Z,21.83
2023-03-05T05:00:40.393Z,21.90
2023-03-05T05:03:07.615Z,21.17
2023-03-05T05:05:34.555Z,19.37
2023-03-05T05:08:01.571Z,20.63
2023-03-05T05:10:28.560Z,20.27
2023-03-05T05:12:55.477Z,28.90
2023-03-05T05:15:22.507Z,18.47
2023-03-05T05:17:49.502Z,23.53
2023-03-05T05:20:17.385Z,25.37
2023-03-05T05:22:44.539Z,24.03
2023-03-05T05:25:11.999Z,21.67
2023-03-05T05:27:40.939Z,21.07
2023-03-05T05:30:08.661Z,23.70
2023-03-05T05:32:35.930Z,22.90
2023-03-05T05:35:04.129Z,23.07
2023-03-05T05:37:31.133Z,19.90
2023-03-05T05:39:58.278Z,19.87
2023-03-05T05:42:25.486Z,19.07
2023-03-05T05:44:53.029Z,18.33
2023-03-05T05:47:20.129Z,19.30
2023-03-05T05:49:47.041Z,18.60
2023-03-05T05:52:14.331Z,18.93
2023-03-05T05:54:41.229Z,23.30
2023-03-05T05:57:08.491Z,18.83
2023-03-05T05:59:35.558Z,19.43
2023-03-05T06:02:02.510Z,19.77
2023-03-05T06:04:29.609Z,19.97
2023-03-05T06:06:56.729Z,19.20
2023-03-05T06:09:23.676Z,19.73
2023-03-05T06:11:50.663Z,17.77
2023-03-05T06:14:17.687Z,22.87
2023-03-05T06:16:44.979Z,16.30
2023-03-05T06:19:13.800Z,15.17
2023-03-05T06:21:41.027Z,18.80
2023-03-05T06:24:08.116Z,19.50
2023-03-05T06:26:35.094Z,23.77
2023-03-05T06:29:02.582Z,20.37
2023-03-05T06:31:30.422Z,20.93
2023-03-05T06:34:03.823Z,25.30
2023-03-05T06:36:31.447Z,19.50
2023-03-05T06:38:59.017Z,19.57
2023-03-05T06:41:28.849Z,19.37
2023-03-05T06:43:56.192Z,16.73
2023-03-05T06:46:29.188Z,15.20
2023-03-05T06:48:57.834Z,17.80
2023-03-05T06:51:30.795Z,18.53
2023-03-05T06:54:02.800Z,16.07
2023-03-05T06:56:30.087Z,17.27
2023-03-05T06:58:57.402Z,17.33
2023-03-05T07:01:24.474Z,19.97
2023-03-05T07:03:53.728Z,18.40
2023-03-05T07:06:21.664Z,19.97
2023-03-05T07:08:49.264Z,21.37
2023-03-05T07:11:19.573Z,23.23
2023-03-05T07:13:50.166Z,22.57
2023-03-05T07:16:26.439Z,25.73
2023-03-05T07:18:54.212Z,24.73
2023-03-05T07:21:27.370Z,27.43
2023-03-05T07:23:55.704Z,31.97
2023-03-05T07:26:23.298Z,28.37
2023-03-05T07:28:50.584Z,26.73
2023-03-05T07:31:30.204Z,19.93
2023-03-05T07:34:03.195Z,22.50
2023-03-05T07:36:30.926Z,25.23
2023-03-05T07:38:57.930Z,20.57
2023-03-05T07:41:24.995Z,22.90
2023-03-05T07:43:54.095Z,21.53
2023-03-05T07:46:25.060Z,30.37
2023-03-05T07:48:52.722Z,27.60
2023-03-05T07:51:20.448Z,27.13
2023-03-05T07:53:49.485Z,24.27
2023-03-05T07:56:29.060Z,23.70
2023-03-05T07:58:56.056Z,29.27
2023-03-05T08:01:23.333Z,28.23
2023-03-05T08:03:50.403Z,23.53
2023-03-05T08:06:17.601Z,24.57
2023-03-05T08:08:45.003Z,27.93
2023-03-05T08:11:14.429Z,28.23
2023-03-05T08:13:42.471Z,26.70
2023-03-05T08:16:14.133Z,28.80
2023-03-05T08:18:44.804Z,31.27
2023-03-05T08:21:20.051Z,28.63
2023-03-05T08:23:47.322Z,28.40
2023-03-05T08:26:18.896Z,30.40
2023-03-05T08:28:46.112Z,26.17
2023-03-05T08:31:14.736Z,27.17
2023-03-05T08:33:43.106Z,29.03
2023-03-05T08:36:10.724Z,28.83
2023-03-05T08:38:37.912Z,28.60
2023-03-05T08:41:05.262Z,30.97
2023-03-05T08:43:35.417Z,26.23
2023-03-05T08:46:02.985Z,26.40
2023-03-05T08:48:30.449Z,24.43
2023-03-05T08:51:00.830Z,25.23
2023-03-05T08:53:27.688Z,26.87
2023-03-05T08:55:59.368Z,25.37
2023-03-05T08:58:26.899Z,23.63
2023-03-05T09:00:53.843Z,22.57
2023-03-05T09:03:20.929Z,20.73
2023-03-05T09:05:48.068Z,17.70
2023-03-05T09:08:15.445Z,23.00
2023-03-05T09:10:46.333Z,20.67
2023-03-05T09:13:13.337Z,19.40
2023-03-05T09:15:40.318Z,21.10
2023-03-05T09:18:09.105Z,23.57
2023-03-05T09:20:36.871Z,25.00
2023-03-05T09:23:04.305Z,20.27
2023-03-05T09:25:31.498Z,22.40
2023-03-05T09:27:58.449Z,25.20
2023-03-05T09:30:27.787Z,21.70
2023-03-05T09:32:55.110Z,24.63
2023-03-05T09:35:22.466Z,24.70
2023-03-05T09:37:51.438Z,24.90
2023-03-05T09:40:27.739Z,22.50
2023-03-05T09:43:24.589Z,22.70
2023-03-05T09:46:01.604Z,22.77
2023-03-05T09:48:44.556Z,23.73
2023-03-05T09:51:18.067Z,19.43
2023-03-05T09:54:01.684Z,23.73
2023-03-05T09:56:43.462Z,24.63
2023-03-05T09:59:36.036Z,32.27
2023-03-05T10:02:20.280Z,22.20
2023-03-05T10:04:58.574Z,25.17
2023-03-05T10:07:36.734Z,24.80
2023-03-05T10:10:33.196Z,20.30
2023-03-05T10:13:11.441Z,19.57
2023-03-05T10:15:51.956Z,18.10
2023-03-05T10:18:28.120Z,23.83
2023-03-05T10:21:22.239Z,25.27
2023-03-05T10:24:17.863Z,31.03
2023-03-05T10:26:53.885Z,23.63
2023-03-05T10:29:48.170Z,23.57
2023-03-05T10:32:21.150Z,22.87
2023-03-05T10:35:11.376Z,19.87
2023-03-05T10:38:08.766Z,24.50
2023-03-05T10:41:19.924Z,26.37
2023-03-05T10:43:51.635Z,25.63
2023-03-05T10:46:22.568Z,26.87
2023-03-05T10:49:21.127Z,25.63
2023-03-05T10:51:53.484Z,25.00
2023-03-05T10:54:38.783Z,23.57
2023-03-05T10:57:15.796Z,19.03
2023-03-05T10:59:48.968Z,15.97
2023-03-05T11:02:16.264Z,17.03
2023-03-05T11:04:44.273Z,18.87
2023-03-05T11:07:17.187Z,17.43
2023-03-05T11:10:04.606Z,18.63
2023-03-05T11:12:39.743Z,20.43
2023-03-05T11:15:26.343Z,19.10
2023-03-05T11:18:17.883Z,20.20
2023-03-05T11:20:45.495Z,17.73
2023-03-05T11:23:18.595Z,19.23
2023-03-05T11:26:13.059Z,18.87
2023-03-05T11:28:52.299Z,19.03
2023-03-05T11:31:19.273Z,19.77
2023-03-05T11:34:04.941Z,20.83
2023-03-05T11:36:38.838Z,22.57
2023-03-05T11:39:17.516Z,23.00
2023-03-05T11:41:56.429Z,22.90
2023-03-05T11:44:35.230Z,18.63
2023-03-05T11:47:40.474Z,25.03
2023-03-05T11:50:07.548Z,23.10
2023-03-05T11:52:45.193Z,22.17
2023-03-05T11:55:18.723Z,24.30
2023-03-05T11:57:53.644Z,22.80
2023-03-05T12:00:29.889Z,23.10
2023-03-05T12:03:00.820Z,28.73
2023-03-05T12:05:30.183Z,26.07
2023-03-05T12:08:01.930Z,25.23
2023-03-05T12:10:29.406Z,20.57
2023-03-05T12:13:04.872Z,22.33
2023-03-05T12:15:41.192Z,19.53
2023-03-05T12:18:35.338Z,19.07
2023-03-05T12:21:21.859Z,23.00
2023-03-05T12:23:53.588Z,24.13
2023-03-05T12:27:02.353Z,25.10
2023-03-05T12:29:46.761Z,24.07
2023-03-05T12:32:25.728Z,23.27
2023-03-05T12:35:18.492Z,23.80
2023-03-05T12:37:45.456Z,26.03
2023-03-05T12:40:28.227Z,24.47
2023-03-05T12:43:06.377Z,24.37
2023-03-05T12:45:41.324Z,28.80
2023-03-05T12:48:12.674Z,24.13
2023-03-05T12:50:39.682Z,26.67
2023-03-05T12:53:14.289Z,30.17
2023-03-05T12:55:46.039Z,24.73
2023-03-05T12:58:43.312Z,24.00
2023-03-05T13:01:28.803Z,24.83
2023-03-05T13:04:11.817Z,23.57
2023-03-05T13:06:39.689Z,25.50
2023-03-05T13:09:25.025Z,26.17
2023-03-05T13:11:54.304Z,32.80
2023-03-05T13:14:33.336Z,25.83
2023-03-05T13:17:01.677Z,23.80
2023-03-05T13:19:32.988Z,31.07
2023-03-05T13:22:02.836Z,22.30
2023-03-05T13:24:30.755Z,31.03
2023-03-05T13:26:57.744Z,21.87
2023-03-05T13:29:30.983Z,22.10
2023-03-05T13:32:04.373Z,20.00
2023-03-05T13:34:47.169Z,25.63
2023-03-05T13:37:24.208Z,27.27
2023-03-05T13:40:07.457Z,23.27
2023-03-05T13:42:36.314Z,22.40
2023-03-05T13:45:20.972Z,35.17
2023-03-05T13:47:58.213Z,30.30
2023-03-05T13:50:37.318Z,27.47
2023-03-05T13:53:19.279Z,25.50
2023-03-05T13:55:50.748Z,23.50
2023-03-05T13:58:44.456Z,24.63
2023-03-05T14:01:18.475Z,25.43
2023-03-05T14:03:50.455Z,24.90
2023-03-05T14:06:21.700Z,25.23
2023-03-05T14:08:54.578Z,26.70
2023-03-05T14:11:21.625Z,21.33
2023-03-05T14:13:49.395Z,33.10
2023-03-05T14:16:26.482Z,25.60
2023-03-05T14:19:02.309Z,28.40
2023-03-05T14:21:50.510Z,21.73
2023-03-05T14:24:28.688Z,23.00
2023-03-05T14:27:03.394Z,20.37
2023-03-05T14:29:32.793Z,21.17
2023-03-05T14:32:02.967Z,19.37
2023-03-05T14:34:35.070Z,19.80
2023-03-05T14:37:05.472Z,23.77
2023-03-05T14:39:35.217Z,22.23
2023-03-05T14:42:24.357Z,20.57
2023-03-05T14:44:51.524Z,21.10
2023-03-05T14:47:18.525Z,21.70
2023-03-05T14:49:45.343Z,26.07
2023-03-05T14:52:16.980Z,22.67
2023-03-05T14:54:44.755Z,25.37
2023-03-05T14:57:24.484Z,23.43
2023-03-05T14:59:51.371Z,22.77
2023-03-05T15:02:21.910Z,22.97
2023-03-05T15:04:49.309Z,23.97
2023-03-05T15:07:32.367Z,23.63
2023-03-05T15:10:02.129Z,23.13
2023-03-05T15:12:30.590Z,22.30
2023-03-05T15:14:57.741Z,19.50
2023-03-05T15:17:35.284Z,20.83
2023-03-05T15:20:08.105Z,20.30
2023-03-05T15:22:35.162Z,21.83
2023-03-05T15:25:02.487Z,21.27
2023-03-05T15:27:30.206Z,22.10
2023-03-05T15:29:57.277Z,26.10
2023-03-05T15:32:27.514Z,18.10
2023-03-05T15:34:55.038Z,16.13
2023-03-05T15:37:22.306Z,17.53
2023-03-05T15:39:50.028Z,14.97
2023-03-05T15:42:17.248Z,17.20
2023-03-05T15:44:44.272Z,22.37
2023-03-05T15:47:11.524Z,19.73
2023-03-05T15:49:38.952Z,26.40
2023-03-05T15:52:05.887Z,24.53
2023-03-05T15:54:32.874Z,16.47
2023-03-05T15:56:59.817Z,13.90
2023-03-05T15:59:27.871Z,16.10
2023-03-05T16:01:54.897Z,14.33
2023-03-05T16:04:21.932Z,14.90
2023-03-05T16:06:50.520Z,19.60
2023-03-05T16:09:20.771Z,17.10
2023-03-05T16:11:51.671Z,23.30
2023-03-05T16:14:24.438Z,16.37
2023-03-05T16:16:55.285Z,19.23
2023-03-05T16:19:24.482Z,20.07
2023-03-05T16:21:51.418Z,18.23
2023-03-05T16:24:18.513Z,24.43
2023-03-05T16:26:45.432Z,22.70
2023-03-05T16:29:12.726Z,15.00
2023-03-05T16:31:41.656Z,18.33
2023-03-05T16:34:09.594Z,18.57
2023-03-05T16:36:36.644Z,18.60
2023-03-05T16:39:05.283Z,18.90
2023-03-05T16:41:32.913Z,19.77
2023-03-05T16:44:00.320Z,19.37
2023-03-05T16:46:29.625Z,22.77
2023-03-05T16:48:58.036Z,25.53
2023-03-05T16:51:26.411Z,25.70
2023-03-05T16:53:55.612Z,29.80
2023-03-05T16:56:23.070Z,33.80
2023-03-05T16:58:53.210Z,23.77
2023-03-05T17:01:21.206Z,24.87
2023-03-05T17:03:48.859Z,21.57
2023-03-05T17:06:18.772Z,20.00
2023-03-05T17:08:47.511Z,16.90
2023-03-05T17:11:14.871Z,17.17
2023-03-05T17:13:42.522Z,16.67
2023-03-05T17:16:11.993Z,17.67
2023-03-05T17:18:39.110Z,20.60
2023-03-05T17:21:07.747Z,18.90
2023-03-05T17:23:36.525Z,19.27
2023-03-05T17:26:09.081Z,17.37
2023-03-05T17:28:36.116Z,16.97
2023-03-05T17:31:04.094Z,23.83
2023-03-05T17:33:35.745Z,23.27
2023-03-05T17:36:03.299Z,28.33
2023-03-05T17:38:31.535Z,23.50
2023-03-05T17:40:58.641Z,23.97
2023-03-05T17:43:25.741Z,24.90
2023-03-05T17:45:52.932Z,24.80
2023-03-05T17:48:19.998Z,24.60
2023-03-05T17:50:47.007Z,24.63
2023-03-05T17:53:14.156Z,25.77
2023-03-05T17:55:41.074Z,24.50
2023-03-05T17:58:08.368Z,22.17
2023-03-05T18:00:36.117Z,25.73
2023-03-05T18:03:03.085Z,26.63
2023-03-05T18:05:30.648Z,28.63
2023-03-05T18:07:57.963Z,26.53
2023-03-05T18:10:26.486Z,20.43
2023-03-05T18:12:54.461Z,23.27
2023-03-05T18:15:23.177Z,20.60
2023-03-05T18:17:50.805Z,21.80
2023-03-05T18:20:26.586Z,17.87
2023-03-05T18:22:54.346Z,20.67
2023-03-05T18:25:22.208Z,15.10
2023-03-05T18:27:49.282Z,14.67
2023-03-05T18:30:16.273Z,16.90
2023-03-05T18:32:44.358Z,14.43
2023-03-05T18:35:12.231Z,17.33
2023-03-05T18:37:39.976Z,15.20
2023-03-05T18:40:09.759Z,15.50
2023-03-05T18:42:37.577Z,14.10
2023-03-05T18:45:06.863Z,17.63
2023-03-05T18:47:34.092Z,17.33
2023-03-05T18:50:01.267Z,16.87
2023-03-05T18:52:29.798Z,16.73
2023-03-05T18:54:59.860Z,18.73
2023-03-05T18:57:27.139Z,15.40
2023-03-05T18:59:54.259Z,17.10
2023-03-05T19:02:21.199Z,18.90
2023-03-05T19:04:48.241Z,16.40
2023-03-05T19:07:15.394Z,18.57
2023-03-05T19:09:59.706Z,15.03
2023-03-05T19:12:35.263Z,15.30
2023-03-05T19:15:03.607Z,13.03
2023-03-05T19:17:32.418Z,13.47
2023-03-05T19:19:59.988Z,15.03
2023-03-05T19:22:28.602Z,16.70
2023-03-05T19:24:56.086Z,12.83
2023-03-05T19:27:24.947Z,18.93
2023-03-05T19:29:53.808Z,13.17
2023-03-05T19:32:24.288Z,15.53
2023-03-05T19:34:55.606Z,14.93
2023-03-05T19:37:22.698Z,12.63
2023-03-05T19:39:49.797Z,16.60
2023-03-05T19:42:16.815Z,13.43
2023-03-05T19:44:43.755Z,14.57
2023-03-05T19:47:11.093Z,14.07
2023-03-05T19:49:38.105Z,15.90
2023-03-05T19:52:06.346Z,14.47
2023-03-05T19:54:33.588Z,14.43
2023-03-05T19:57:00.591Z,15.83
2023-03-05T19:59:27.626Z,13.00
2023-03-05T20:01:54.852Z,13.70
2023-03-05T20:04:24.235Z,17.17
2023-03-05T20:06:51.201Z,14.07
2023-03-05T20:09:18.160Z,16.80
2023-03-05T20:11:46.005Z,19.47
2023-03-05T20:14:14.772Z,18.23
2023-03-05T20:16:43.469Z,16.40
2023-03-05T20:19:16.860Z,14.17
2023-03-05T20:21:45.542Z,15.83
2023-03-05T20:24:15.124Z,13.93
2023-03-05T20:26:44.093Z,15.17
2023-03-05T20:29:12.094Z,15.97
2023-03-05T20:31:40.177Z,15.27
2023-03-05T20:34:10.007Z,17.47
2023-03-05T20:36:37.166Z,15.60
2023-03-05T20:39:07.492Z,14.60
2023-03-05T20:41:37.705Z,15.10
2023-03-05T20:44:06.256Z,14.17
2023-03-05T20:46:36.229Z,15.83
2023-03-05T20:49:21.615Z,13.77
2023-03-05T20:51:50.875Z,13.40
2023-03-05T20:54:18.708Z,13.13
2023-03-05T20:56:45.919Z,14.07
2023-03-05T20:59:13.151Z,15.50
2023-03-05T21:01:41.029Z,13.07
2023-03-05T21:04:09.016Z,14.13
2023-03-05T21:06:36.960Z,17.77
2023-03-05T21:09:04.222Z,22.03
2023-03-05T21:11:32.127Z,20.33
2023-03-05T21:13:59.453Z,19.60
2023-03-05T21:16:28.136Z,17.03
2023-03-05T21:18:57.397Z,22.37
2023-03-05T21:21:24.918Z,19.50
2023-03-05T21:23:52.320Z,17.33
2023-03-05T21:26:19.382Z,21.67
2023-03-05T21:28:46.352Z,19.23
2023-03-05T21:31:21.396Z,19.10
2023-03-05T21:33:49.494Z,22.13
2023-03-05T21:36:19.386Z,23.37
2023-03-05T21:38:50.718Z,22.47
2023-03-05T21:41:20.371Z,20.80
2023-03-05T21:43:47.276Z,28.83
2023-03-05T21:46:14.448Z,28.83
2023-03-05T21:48:41.413Z,28.63
2023-03-05T21:51:11.564Z,43.20
2023-03-05T21:53:38.519Z,28.17
2023-03-05T21:56:12.401Z,19.13
2023-03-05T21:58:39.473Z,21.30
2023-03-05T22:01:06.433Z,18.03
2023-03-05T22:03:33.418Z,18.40
2023-03-05T22:06:00.414Z,23.77
2023-03-05T22:08:29.969Z,20.97
2023-03-05T22:10:57.035Z,19.23
2023-03-05T22:13:23.984Z,15.27
2023-03-05T22:15:53.486Z,21.57
2023-03-05T22:18:23.414Z,34.43
2023-03-05T22:20:50.871Z,42.23
2023-03-05T22:23:19.081Z,30.30
2023-03-05T22:25:46.034Z,22.37
2023-03-05T22:28:13.760Z,24.67
2023-03-05T22:30:45.238Z,28.07
2023-03-05T22:33:12.866Z,25.70
2023-03-05T22:35:41.260Z,25.83
2023-03-05T22:38:10.072Z,23.07
2023-03-05T22:40:41.524Z,23.70
2023-03-05T22:43:08.597Z,26.23
2023-03-05T22:45:35.579Z,24.13
2023-03-05T22:48:02.795Z,19.73
2023-03-05T22:50:29.862Z,23.60
2023-03-05T22:52:56.986Z,22.10
2023-03-05T22:55:24.016Z,21.00
2023-03-05T22:57:51.155Z,22.77
2023-03-05T23:00:27.018Z,21.43
2023-03-05T23:02:54.293Z,21.07
2023-03-05T23:05:21.496Z,20.97
2023-03-05T23:07:49.512Z,23.47
2023-03-05T23:10:20.862Z,24.03
2023-03-05T23:12:50.500Z,18.93
2023-03-05T23:15:23.473Z,19.50
2023-03-05T23:17:50.452Z,25.60
2023-03-05T23:20:20.952Z,21.87
2023-03-05T23:22:49.073Z,20.27
2023-03-05T23:25:16.614Z,21.53
2023-03-05T23:27:45.050Z,18.67
2023-03-05T23:30:31.172Z,22.40
2023-03-05T23:33:14.651Z,24.13
2023-03-05T23:36:01.939Z,21.83
2023-03-05T23:38:30.215Z,24.00
2023-03-05T23:41:01.481Z,26.37
2023-03-05T23:43:29.274Z,23.87
2023-03-05T23:45:56.988Z,26.03
2023-03-05T23:48:25.942Z,24.37
2023-03-05T23:50:53.193Z,23.10
2023-03-05T23:53:25.987Z,19.57
2023-03-05T23:55:53.825Z,18.97
2023-03-05T23:58:21.580Z,21.70
